Aérodrome :
LOGIN :

S'inscrire | Disclaimer

   EN    FR    IT 

 










Légende :    VFR   VFR Marginal   IFR   IFR Intensif   IFR Très Intensif
Visi : 
Plafond : 
>= 8 km
>= 3000ft
5 à 8 km
1000 à 3000 ft
1500m à 5 km
500 à 1000 ft
800 à 1500m
200 à 500 ft
< 800m
< 200 ft
Symboles :   Orages  Brouillard  Fortes neiges  Fortes précipitations  Vent > 20 kt
SIGMETs :   Divers  Orages  Givrage  Turbulence  Onde Orograph.  Cendres Volcan.







- Altitude de l'aérodrome : 1411 ft
- Code IATA : GVA


LSGG - Genève Cointrin

DERNIER METAR :
  • 281520Z 24011KT 9999 -TSRA FEW040CB SCT045TCU SCT070 BKN090 21/12 Q1000 TEMPO 5000 TSRA

METARs EXPIRÉS :
  • 281450Z 23020KT 9999 VCSH FEW040CB SCT045TCU SCT070 BKN090 23/12 Q1000 TEMPO 5000 TSRA
  • 281420Z 22016KT 180V260 9999 TS FEW045CB SCT050TCU BKN100 25/12 Q1000 TEMPO 5000 TSRA
  • 281350Z 22016KT 9999 SCT050TCU BKN120 25/12 Q1000 TEMPO TS SCT060CB
  • 281320Z 22017KT 180V240 9999 FEW050 FEW055TCU SCT230 25/12 Q1000 TEMPO TS SCT060CB
  • 281250Z 20017KT 9999 FEW050 FEW055TCU SCT230 25/12 Q1001 TEMPO TS SCT060CB
  • 281220Z 23014KT 190V280 9999 FEW050 FEW055TCU SCT260 24/12 Q1001 TEMPO TS SCT060CB

TAF TAF LSGG
Valide du 28 à 15h jusqu'au 29 à 21h UTC


281425Z 2815/2921 23010KT 9999 FEW035 SCT050 TX25/2815Z TN14/2904Z TX20/2915Z
TEMPO 2815/2901 SHRA FEW015 SCT040TCU BKN050
PROB40
TEMPO 2816/2824 30015G25KT 4500 TSRA FEW015 SCT040CB BKN050
BECMG 2908/2910 23015G25KT
TEMPO 2910/2918 SHRA
ATIS : +41 22 417 40 81
Pas de NOTAMs connus pour ce terrain.
1 SIGMET publié pour la FIR Switzerland (LSAS) :
 
Orages noyés dans la masse
LSAS SIGMET 4 VALID 281435/281600 LSZH
LSAS SWITZERLAND FIR/UIR EMBD TS OBS WI N4703 E00923 - N4702 E01033 - N4546 E01027 - N4540 E00611 - N4629 E00529 - N4646 E00627 - N4701 E00823 - N4703 E00923 TOP FL350 MOV NE NC=



MET'MAP, la Météo Aéronautique d'un coup d'oeil ! - Copyright ORBIFLY Décembre 2007 - Disclaimer

ORBIFLY MET'MAP TEAM :

Programmation & Développement : Alexandra Zaïnal
Conception & Développement : Baudouin d'Aumeries
Co-Programmation & Développement : Marc-Olivier Méhu
Soutien technique & logistique : Manuel Goepfert

Contact : metmap@orbifly.com




SOURCES & CREDITS :

   NOAA